sensor_id;sensor_type;location;lat;lon;timestamp;temperature;humidity
39675;DHT22;27790;50.840;4.386;2022-07-01T00:01:27;15.50;94.70
39675;DHT22;27790;50.840;4.386;2022-07-01T00:03:53;15.50;94.80
39675;DHT22;27790;50.840;4.386;2022-07-01T00:06:18;15.50;94.80
39675;DHT22;27790;50.840;4.386;2022-07-01T00:08:44;15.50;94.70
39675;DHT22;27790;50.840;4.386;2022-07-01T00:11:11;15.50;94.70
39675;DHT22;27790;50.840;4.386;2022-07-01T00:13:36;15.50;94.60
39675;DHT22;27790;50.840;4.386;2022-07-01T00:16:02;15.50;94.70
39675;DHT22;27790;50.840;4.386;2022-07-01T00:18:28;15.50;94.70
39675;DHT22;27790;50.840;4.386;2022-07-01T00:20:54;15.50;94.60
39675;DHT22;27790;50.840;4.386;2022-07-01T00:23:20;15.50;94.60
39675;DHT22;27790;50.840;4.386;2022-07-01T00:25:45;15.50;94.60
39675;DHT22;27790;50.840;4.386;2022-07-01T00:28:11;15.50;94.60
39675;DHT22;27790;50.840;4.386;2022-07-01T00:30:37;15.40;94.70
39675;DHT22;27790;50.840;4.386;2022-07-01T00:33:02;15.40;94.80
39675;DHT22;27790;50.840;4.386;2022-07-01T00:35:28;15.40;94.80
39675;DHT22;27790;50.840;4.386;2022-07-01T00:37:53;15.40;94.90
39675;DHT22;27790;50.840;4.386;2022-07-01T00:40:19;15.40;95.00
39675;DHT22;27790;50.840;4.386;2022-07-01T00:42:44;15.40;95.00
39675;DHT22;27790;50.840;4.386;2022-07-01T00:45:11;15.40;94.90
39675;DHT22;27790;50.840;4.386;2022-07-01T00:47:37;15.40;95.00
39675;DHT22;27790;50.840;4.386;2022-07-01T00:50:12;15.40;95.20
39675;DHT22;27790;50.840;4.386;2022-07-01T00:52:39;15.40;95.00
39675;DHT22;27790;50.840;4.386;2022-07-01T00:55:05;15.40;94.90
39675;DHT22;27790;50.840;4.386;2022-07-01T00:57:32;15.40;95.00
39675;DHT22;27790;50.840;4.386;2022-07-01T00:59:57;15.40;94.90
39675;DHT22;27790;50.840;4.386;2022-07-01T01:02:23;15.40;94.80
39675;DHT22;27790;50.840;4.386;2022-07-01T01:04:51;15.40;94.80
39675;DHT22;27790;50.840;4.386;2022-07-01T01:07:17;15.40;95.10
39675;DHT22;27790;50.840;4.386;2022-07-01T01:09:42;15.30;94.90
39675;DHT22;27790;50.840;4.386;2022-07-01T01:12:08;15.30;95.00
39675;DHT22;27790;50.840;4.386;2022-07-01T01:17:14;15.30;95.00
39675;DHT22;27790;50.840;4.386;2022-07-01T01:19:40;15.30;95.00
39675;DHT22;27790;50.840;4.386;2022-07-01T01:22:06;15.30;95.10
39675;DHT22;27790;50.840;4.386;2022-07-01T01:24:31;15.30;95.10
39675;DHT22;27790;50.840;4.386;2022-07-01T01:26:57;15.40;95.10
39675;DHT22;27790;50.840;4.386;2022-07-01T01:29:22;15.40;95.00
39675;DHT22;27790;50.840;4.386;2022-07-01T01:31:48;15.50;95.00
39675;DHT22;27790;50.840;4.386;2022-07-01T01:34:13;15.50;94.90
39675;DHT22;27790;50.840;4.386;2022-07-01T01:36:39;15.50;95.00
39675;DHT22;27790;50.840;4.386;2022-07-01T01:39:05;15.50;94.60
39675;DHT22;27790;50.840;4.386;2022-07-01T01:41:37;15.50;94.70
39675;DHT22;27790;50.840;4.386;2022-07-01T01:44:02;15.50;94.80
39675;DHT22;27790;50.840;4.386;2022-07-01T01:46:28;15.50;94.80
39675;DHT22;27790;50.840;4.386;2022-07-01T01:48:55;15.50;94.80
39675;DHT22;27790;50.840;4.386;2022-07-01T01:51:21;15.60;94.70
39675;DHT22;27790;50.840;4.386;2022-07-01T01:53:47;15.60;94.60
39675;DHT22;27790;50.840;4.386;2022-07-01T01:56:12;15.60;94.60
39675;DHT22;27790;50.840;4.386;2022-07-01T01:58:38;15.70;94.60
39675;DHT22;27790;50.840;4.386;2022-07-01T02:01:13;15.70;94.40
39675;DHT22;27790;50.840;4.386;2022-07-01T02:03:40;15.70;94.40
39675;DHT22;27790;50.840;4.386;2022-07-01T02:06:06;15.80;94.40
39675;DHT22;27790;50.840;4.386;2022-07-01T02:08:32;15.80;94.30
39675;DHT22;27790;50.840;4.386;2022-07-01T02:10:57;15.80;94.30
39675;DHT22;27790;50.840;4.386;2022-07-01T02:13:23;15.80;94.10
39675;DHT22;27790;50.840;4.386;2022-07-01T02:15:48;15.80;94.10
39675;DHT22;27790;50.840;4.386;2022-07-01T02:18:17;15.80;94.20
39675;DHT22;27790;50.840;4.386;2022-07-01T02:20:42;15.80;94.20
39675;DHT22;27790;50.840;4.386;2022-07-01T02:23:08;15.80;94.30
39675;DHT22;27790;50.840;4.386;2022-07-01T02:25:34;15.70;94.30
39675;DHT22;27790;50.840;4.386;2022-07-01T02:28:00;15.60;94.40
39675;DHT22;27790;50.840;4.386;2022-07-01T02:30:26;15.60;94.40
39675;DHT22;27790;50.840;4.386;2022-07-01T02:32:51;15.50;94.50
39675;DHT22;27790;50.840;4.386;2022-07-01T02:35:16;15.50;94.70
39675;DHT22;27790;50.840;4.386;2022-07-01T02:37:45;15.50;94.60
39675;DHT22;27790;50.840;4.386;2022-07-01T02:40:11;15.50;94.70
39675;DHT22;27790;50.840;4.386;2022-07-01T02:42:38;15.40;94.70
39675;DHT22;27790;50.840;4.386;2022-07-01T02:45:04;15.40;94.80
39675;DHT22;27790;50.840;4.386;2022-07-01T02:47:31;15.40;94.90
39675;DHT22;27790;50.840;4.386;2022-07-01T02:49:56;15.40;94.80
39675;DHT22;27790;50.840;4.386;2022-07-01T02:52:22;15.40;94.90
39675;DHT22;27790;50.840;4.386;2022-07-01T02:54:47;15.50;94.80
39675;DHT22;27790;50.840;4.386;2022-07-01T02:57:13;15.50;94.80
39675;DHT22;27790;50.840;4.386;2022-07-01T02:59:38;15.50;94.70
39675;DHT22;27790;50.840;4.386;2022-07-01T03:02:05;15.50;94.70
39675;DHT22;27790;50.840;4.386;2022-07-01T03:04:30;15.40;94.80
39675;DHT22;27790;50.840;4.386;2022-07-01T03:06:56;15.50;94.80
39675;DHT22;27790;50.840;4.386;2022-07-01T03:09:22;15.50;94.70
39675;DHT22;27790;50.840;4.386;2022-07-01T03:11:48;15.50;94.70
39675;DHT22;27790;50.840;4.386;2022-07-01T03:14:13;15.50;94.60
39675;DHT22;27790;50.840;4.386;2022-07-01T03:16:38;15.40;94.70
39675;DHT22;27790;50.840;4.386;2022-07-01T03:19:05;15.40;94.70
39675;DHT22;27790;50.840;4.386;2022-07-01T03:21:30;15.40;94.70
39675;DHT22;27790;50.840;4.386;2022-07-01T03:23:56;15.40;94.80
39675;DHT22;27790;50.840;4.386;2022-07-01T03:26:22;15.40;94.80
39675;DHT22;27790;50.840;4.386;2022-07-01T03:28:47;15.50;94.60
39675;DHT22;27790;50.840;4.386;2022-07-01T03:31:13;15.60;94.40
39675;DHT22;27790;50.840;4.386;2022-07-01T03:33:38;15.60;94.20
39675;DHT22;27790;50.840;4.386;2022-07-01T03:36:03;15.70;94.20
39675;DHT22;27790;50.840;4.386;2022-07-01T03:38:29;15.80;93.80
39675;DHT22;27790;50.840;4.386;2022-07-01T03:40:54;15.80;93.80
39675;DHT22;27790;50.840;4.386;2022-07-01T03:43:20;15.80;93.80
39675;DHT22;27790;50.840;4.386;2022-07-01T03:45:45;15.70;93.80
39675;DHT22;27790;50.840;4.386;2022-07-01T03:48:11;15.70;93.80
39675;DHT22;27790;50.840;4.386;2022-07-01T03:50:37;15.70;93.60
39675;DHT22;27790;50.840;4.386;2022-07-01T03:53:03;15.60;93.80
39675;DHT22;27790;50.840;4.386;2022-07-01T03:55:39;15.50;93.90
39675;DHT22;27790;50.840;4.386;2022-07-01T03:58:05;15.50;94.00
39675;DHT22;27790;50.840;4.386;2022-07-01T04:00:34;15.50;93.90
39675;DHT22;27790;50.840;4.386;2022-07-01T04:03:01;15.60;93.90
39675;DHT22;27790;50.840;4.386;2022-07-01T04:05:26;15.60;93.90
39675;DHT22;27790;50.840;4.386;2022-07-01T04:07:52;15.60;93.80
39675;DHT22;27790;50.840;4.386;2022-07-01T04:10:17;15.70;93.80
39675;DHT22;27790;50.840;4.386;2022-07-01T04:12:43;15.70;93.40
39675;DHT22;27790;50.840;4.386;2022-07-01T04:15:09;15.70;93.50
39675;DHT22;27790;50.840;4.386;2022-07-01T04:17:34;15.70;93.40
39675;DHT22;27790;50.840;4.386;2022-07-01T04:20:00;15.70;93.40
39675;DHT22;27790;50.840;4.386;2022-07-01T04:22:25;15.60;93.30
39675;DHT22;27790;50.840;4.386;2022-07-01T04:25:01;15.60;93.20
39675;DHT22;27790;50.840;4.386;2022-07-01T04:27:28;15.50;93.40
39675;DHT22;27790;50.840;4.386;2022-07-01T04:29:54;15.40;93.40
39675;DHT22;27790;50.840;4.386;2022-07-01T04:32:19;15.40;93.60
39675;DHT22;27790;50.840;4.386;2022-07-01T04:34:45;15.40;93.60
39675;DHT22;27790;50.840;4.386;2022-07-01T04:37:10;15.40;93.50
39675;DHT22;27790;50.840;4.386;2022-07-01T04:39:37;15.40;93.30
39675;DHT22;27790;50.840;4.386;2022-07-01T04:42:03;15.40;93.20
39675;DHT22;27790;50.840;4.386;2022-07-01T04:44:32;15.40;93.20
39675;DHT22;27790;50.840;4.386;2022-07-01T04:46:58;15.40;93.40
39675;DHT22;27790;50.840;4.386;2022-07-01T04:49:24;15.40;93.40
39675;DHT22;27790;50.840;4.386;2022-07-01T04:51:49;15.60;93.20
39675;DHT22;27790;50.840;4.386;2022-07-01T04:54:15;15.90;93.10
39675;DHT22;27790;50.840;4.386;2022-07-01T04:56:41;16.30;92.50
39675;DHT22;27790;50.840;4.386;2022-07-01T04:59:06;17.20;91.60
39675;DHT22;27790;50.840;4.386;2022-07-01T05:01:32;18.20;88.60
39675;DHT22;27790;50.840;4.386;2022-07-01T05:03:57;19.10;84.70
39675;DHT22;27790;50.840;4.386;2022-07-01T05:06:23;20.00;82.00
39675;DHT22;27790;50.840;4.386;2022-07-01T05:08:49;20.80;79.00
39675;DHT22;27790;50.840;4.386;2022-07-01T05:11:15;21.10;75.80
39675;DHT22;27790;50.840;4.386;2022-07-01T05:13:40;21.00;76.90
39675;DHT22;27790;50.840;4.386;2022-07-01T05:16:06;20.80;75.90
39675;DHT22;27790;50.840;4.386;2022-07-01T05:18:31;20.40;77.60
39675;DHT22;27790;50.840;4.386;2022-07-01T05:21:08;19.80;79.00
39675;DHT22;27790;50.840;4.386;2022-07-01T05:23:44;19.10;81.00
39675;DHT22;27790;50.840;4.386;2022-07-01T05:26:10;18.50;83.20
39675;DHT22;27790;50.840;4.386;2022-07-01T05:28:41;18.60;84.20
39675;DHT22;27790;50.840;4.386;2022-07-01T05:31:06;19.00;84.10
39675;DHT22;27790;50.840;4.386;2022-07-01T05:33:32;20.00;80.30
39675;DHT22;27790;50.840;4.386;2022-07-01T05:35:57;21.00;77.10
39675;DHT22;27790;50.840;4.386;2022-07-01T05:38:22;22.00;74.10
39675;DHT22;27790;50.840;4.386;2022-07-01T05:40:48;22.60;72.00
39675;DHT22;27790;50.840;4.386;2022-07-01T05:43:13;23.10;70.40
39675;DHT22;27790;50.840;4.386;2022-07-01T05:45:39;23.20;69.10
39675;DHT22;27790;50.840;4.386;2022-07-01T05:48:04;23.30;68.80
39675;DHT22;27790;50.840;4.386;2022-07-01T05:50:30;23.40;69.10
39675;DHT22;27790;50.840;4.386;2022-07-01T05:52:55;23.60;67.90
39675;DHT22;27790;50.840;4.386;2022-07-01T05:55:21;23.50;68.00
39675;DHT22;27790;50.840;4.386;2022-07-01T05:57:46;23.30;67.90
39675;DHT22;27790;50.840;4.386;2022-07-01T06:00:12;23.20;68.30
39675;DHT22;27790;50.840;4.386;2022-07-01T06:02:38;22.90;69.40
39675;DHT22;27790;50.840;4.386;2022-07-01T06:05:03;22.50;70.30
39675;DHT22;27790;50.840;4.386;2022-07-01T06:07:29;22.70;70.60
39675;DHT22;27790;50.840;4.386;2022-07-01T06:09:55;23.20;70.00
39675;DHT22;27790;50.840;4.386;2022-07-01T06:12:20;23.80;67.40
39675;DHT22;27790;50.840;4.386;2022-07-01T06:14:46;24.40;66.60
39675;DHT22;27790;50.840;4.386;2022-07-01T06:17:11;24.90;64.80
39675;DHT22;27790;50.840;4.386;2022-07-01T06:19:39;25.30;63.50
39675;DHT22;27790;50.840;4.386;2022-07-01T06:22:05;25.70;61.90
39675;DHT22;27790;50.840;4.386;2022-07-01T06:24:31;26.00;61.70
39675;DHT22;27790;50.840;4.386;2022-07-01T06:26:57;26.40;60.40
39675;DHT22;27790;50.840;4.386;2022-07-01T06:29:22;26.60;60.60
39675;DHT22;27790;50.840;4.386;2022-07-01T06:31:48;26.90;59.20
39675;DHT22;27790;50.840;4.386;2022-07-01T06:34:13;27.10;58.50
39675;DHT22;27790;50.840;4.386;2022-07-01T06:36:39;27.30;57.30
39675;DHT22;27790;50.840;4.386;2022-07-01T06:39:04;27.30;57.30
39675;DHT22;27790;50.840;4.386;2022-07-01T06:41:30;27.30;56.80
39675;DHT22;27790;50.840;4.386;2022-07-01T06:43:56;27.10;56.80
39675;DHT22;27790;50.840;4.386;2022-07-01T06:46:22;26.60;58.40
39675;DHT22;27790;50.840;4.386;2022-07-01T06:48:48;26.80;56.80
39675;DHT22;27790;50.840;4.386;2022-07-01T06:51:13;26.70;57.90
39675;DHT22;27790;50.840;4.386;2022-07-01T06:53:39;26.80;58.00
39675;DHT22;27790;50.840;4.386;2022-07-01T06:56:04;26.70;58.20
39675;DHT22;27790;50.840;4.386;2022-07-01T06:58:30;26.80;57.40
39675;DHT22;27790;50.840;4.386;2022-07-01T07:00:55;27.00;58.50
39675;DHT22;27790;50.840;4.386;2022-07-01T07:03:21;27.00;57.40
39675;DHT22;27790;50.840;4.386;2022-07-01T07:05:47;27.10;56.30
39675;DHT22;27790;50.840;4.386;2022-07-01T07:08:12;27.30;55.50
39675;DHT22;27790;50.840;4.386;2022-07-01T07:10:38;27.40;55.20
39675;DHT22;27790;50.840;4.386;2022-07-01T07:13:03;26.80;56.50
39675;DHT22;27790;50.840;4.386;2022-07-01T07:15:29;26.30;57.20
39675;DHT22;27790;50.840;4.386;2022-07-01T07:17:54;25.50;59.00
39675;DHT22;27790;50.840;4.386;2022-07-01T07:20:25;25.00;59.10
39675;DHT22;27790;50.840;4.386;2022-07-01T07:22:51;24.40;60.70
39675;DHT22;27790;50.840;4.386;2022-07-01T07:25:16;24.40;62.00
39675;DHT22;27790;50.840;4.386;2022-07-01T07:27:42;24.60;61.50
39675;DHT22;27790;50.840;4.386;2022-07-01T07:30:14;24.10;62.70
39675;DHT22;27790;50.840;4.386;2022-07-01T07:32:39;23.90;62.10
39675;DHT22;27790;50.840;4.386;2022-07-01T07:35:05;23.90;62.10
39675;DHT22;27790;50.840;4.386;2022-07-01T07:37:32;24.60;61.90
39675;DHT22;27790;50.840;4.386;2022-07-01T07:39:58;24.70;60.50
39675;DHT22;27790;50.840;4.386;2022-07-01T07:42:23;24.40;60.80
39675;DHT22;27790;50.840;4.386;2022-07-01T07:44:49;23.90;60.80
39675;DHT22;27790;50.840;4.386;2022-07-01T07:47:14;23.90;61.90
39675;DHT22;27790;50.840;4.386;2022-07-01T07:49:40;24.30;61.30
39675;DHT22;27790;50.840;4.386;2022-07-01T07:52:05;24.50;60.20
39675;DHT22;27790;50.840;4.386;2022-07-01T07:54:31;24.00;60.60
39675;DHT22;27790;50.840;4.386;2022-07-01T07:56:56;23.90;62.20
39675;DHT22;27790;50.840;4.386;2022-07-01T07:59:22;23.80;62.00
39675;DHT22;27790;50.840;4.386;2022-07-01T08:01:47;23.60;62.80
39675;DHT22;27790;50.840;4.386;2022-07-01T08:04:12;24.10;61.80
39675;DHT22;27790;50.840;4.386;2022-07-01T08:06:38;24.60;61.60
39675;DHT22;27790;50.840;4.386;2022-07-01T08:09:03;24.80;61.10
39675;DHT22;27790;50.840;4.386;2022-07-01T08:11:29;24.60;61.30
39675;DHT22;27790;50.840;4.386;2022-07-01T08:13:54;24.30;61.20
39675;DHT22;27790;50.840;4.386;2022-07-01T08:16:20;24.00;61.40
39675;DHT22;27790;50.840;4.386;2022-07-01T08:18:46;23.60;62.00
39675;DHT22;27790;50.840;4.386;2022-07-01T08:21:11;23.20;62.60
39675;DHT22;27790;50.840;4.386;2022-07-01T08:23:37;23.50;63.80
39675;DHT22;27790;50.840;4.386;2022-07-01T08:26:02;23.60;63.50
39675;DHT22;27790;50.840;4.386;2022-07-01T08:28:28;23.50;63.30
39675;DHT22;27790;50.840;4.386;2022-07-01T08:30:53;23.30;63.10
39675;DHT22;27790;50.840;4.386;2022-07-01T08:33:19;23.10;63.30
39675;DHT22;27790;50.840;4.386;2022-07-01T08:35:44;23.10;63.00
39675;DHT22;27790;50.840;4.386;2022-07-01T08:38:10;22.90;63.70
39675;DHT22;27790;50.840;4.386;2022-07-01T08:40:35;22.60;64.70
39675;DHT22;27790;50.840;4.386;2022-07-01T08:43:05;22.40;65.10
39675;DHT22;27790;50.840;4.386;2022-07-01T08:45:31;22.20;66.50
39675;DHT22;27790;50.840;4.386;2022-07-01T08:47:58;21.90;67.20
39675;DHT22;27790;50.840;4.386;2022-07-01T08:50:26;21.80;68.50
39675;DHT22;27790;50.840;4.386;2022-07-01T08:52:52;21.50;68.30
39675;DHT22;27790;50.840;4.386;2022-07-01T08:55:18;21.40;69.20
39675;DHT22;27790;50.840;4.386;2022-07-01T08:57:44;22.10;68.80
39675;DHT22;27790;50.840;4.386;2022-07-01T09:00:09;23.40;66.10
39675;DHT22;27790;50.840;4.386;2022-07-01T09:05:28;25.50;60.80
39675;DHT22;27790;50.840;4.386;2022-07-01T09:07:58;25.40;58.30
39675;DHT22;27790;50.840;4.386;2022-07-01T09:10:24;26.10;58.40
39675;DHT22;27790;50.840;4.386;2022-07-01T09:12:50;27.00;55.60
39675;DHT22;27790;50.840;4.386;2022-07-01T09:24:03;24.70;57.10
39675;DHT22;27790;50.840;4.386;2022-07-01T09:29:02;25.40;58.60
39675;DHT22;27790;50.840;4.386;2022-07-01T09:31:32;25.80;56.50
39675;DHT22;27790;50.840;4.386;2022-07-01T09:34:02;25.80;56.10
39675;DHT22;27790;50.840;4.386;2022-07-01T09:36:28;25.00;57.80
39675;DHT22;27790;50.840;4.386;2022-07-01T09:38:53;24.50;59.60
39675;DHT22;27790;50.840;4.386;2022-07-01T09:41:19;24.80;59.20
39675;DHT22;27790;50.840;4.386;2022-07-01T09:43:47;25.90;58.00
39675;DHT22;27790;50.840;4.386;2022-07-01T09:46:13;26.10;56.20
39675;DHT22;27790;50.840;4.386;2022-07-01T09:51:07;25.00;56.10
39675;DHT22;27790;50.840;4.386;2022-07-01T09:53:33;24.30;58.80
39675;DHT22;27790;50.840;4.386;2022-07-01T09:55:59;23.80;57.40
39675;DHT22;27790;50.840;4.386;2022-07-01T09:58:25;23.10;58.60
39675;DHT22;27790;50.840;4.386;2022-07-01T10:00:53;22.50;61.10
39675;DHT22;27790;50.840;4.386;2022-07-01T10:03:19;22.30;63.10
39675;DHT22;27790;50.840;4.386;2022-07-01T10:05:47;22.20;64.00
39675;DHT22;27790;50.840;4.386;2022-07-01T10:10:44;22.10;63.60
39675;DHT22;27790;50.840;4.386;2022-07-01T10:13:13;22.00;63.50
39675;DHT22;27790;50.840;4.386;2022-07-01T10:15:41;22.00;63.90
39675;DHT22;27790;50.840;4.386;2022-07-01T10:18:14;21.90;64.70
39675;DHT22;27790;50.840;4.386;2022-07-01T10:20:45;22.10;63.90
39675;DHT22;27790;50.840;4.386;2022-07-01T10:23:11;22.30;64.90
39675;DHT22;27790;50.840;4.386;2022-07-01T10:25:44;22.40;62.90
39675;DHT22;27790;50.840;4.386;2022-07-01T10:28:17;22.40;61.50
39675;DHT22;27790;50.840;4.386;2022-07-01T10:33:27;22.30;62.10
39675;DHT22;27790;50.840;4.386;2022-07-01T10:35:53;22.40;62.80
39675;DHT22;27790;50.840;4.386;2022-07-01T10:38:18;22.50;62.30
39675;DHT22;27790;50.840;4.386;2022-07-01T10:40:44;22.60;60.90
39675;DHT22;27790;50.840;4.386;2022-07-01T10:43:11;22.80;62.30
39675;DHT22;27790;50.840;4.386;2022-07-01T10:45:45;22.90;61.90
39675;DHT22;27790;50.840;4.386;2022-07-01T10:50:48;22.80;61.40
39675;DHT22;27790;50.840;4.386;2022-07-01T10:53:14;23.00;63.50
39675;DHT22;27790;50.840;4.386;2022-07-01T10:55:44;23.00;61.70
39675;DHT22;27790;50.840;4.386;2022-07-01T10:58:10;23.00;60.70
39675;DHT22;27790;50.840;4.386;2022-07-01T11:00:36;22.80;60.50
39675;DHT22;27790;50.840;4.386;2022-07-01T11:03:09;22.60;61.30
39675;DHT22;27790;50.840;4.386;2022-07-01T11:05:35;22.40;61.60
39675;DHT22;27790;50.840;4.386;2022-07-01T11:08:02;22.30;61.30
39675;DHT22;27790;50.840;4.386;2022-07-01T11:10:29;22.40;62.30
39675;DHT22;27790;50.840;4.386;2022-07-01T11:12:55;22.40;63.20
39675;DHT22;27790;50.840;4.386;2022-07-01T11:15:20;22.60;64.10
39675;DHT22;27790;50.840;4.386;2022-07-01T11:17:48;22.80;62.10
39675;DHT22;27790;50.840;4.386;2022-07-01T11:20:14;23.00;59.60
39675;DHT22;27790;50.840;4.386;2022-07-01T11:22:39;23.00;60.90
39675;DHT22;27790;50.840;4.386;2022-07-01T11:25:06;23.00;59.90
39675;DHT22;27790;50.840;4.386;2022-07-01T11:27:32;22.90;60.10
39675;DHT22;27790;50.840;4.386;2022-07-01T11:29:58;23.00;59.40
39675;DHT22;27790;50.840;4.386;2022-07-01T11:32:25;22.90;57.20
39675;DHT22;27790;50.840;4.386;2022-07-01T11:34:51;23.00;59.10
39675;DHT22;27790;50.840;4.386;2022-07-01T11:37:16;22.90;58.80
39675;DHT22;27790;50.840;4.386;2022-07-01T11:40:01;22.90;61.00
39675;DHT22;27790;50.840;4.386;2022-07-01T11:42:27;23.00;57.80
39675;DHT22;27790;50.840;4.386;2022-07-01T11:44:53;23.10;59.30
39675;DHT22;27790;50.840;4.386;2022-07-01T11:47:22;22.90;57.70
39675;DHT22;27790;50.840;4.386;2022-07-01T11:49:48;22.70;58.10
39675;DHT22;27790;50.840;4.386;2022-07-01T11:52:14;22.50;58.80
39675;DHT22;27790;50.840;4.386;2022-07-01T11:54:41;22.50;58.80
39675;DHT22;27790;50.840;4.386;2022-07-01T11:59:34;22.50;60.80
39675;DHT22;27790;50.840;4.386;2022-07-01T12:02:01;22.40;57.30
39675;DHT22;27790;50.840;4.386;2022-07-01T12:04:29;22.40;58.30
39675;DHT22;27790;50.840;4.386;2022-07-01T12:06:54;22.40;59.90
39675;DHT22;27790;50.840;4.386;2022-07-01T12:09:20;22.30;58.90
39675;DHT22;27790;50.840;4.386;2022-07-01T12:11:46;22.50;59.40
39675;DHT22;27790;50.840;4.386;2022-07-01T12:14:18;22.60;58.10
39675;DHT22;27790;50.840;4.386;2022-07-01T12:16:44;22.80;57.00
39675;DHT22;27790;50.840;4.386;2022-07-01T12:19:09;22.90;56.10
39675;DHT22;27790;50.840;4.386;2022-07-01T12:24:12;22.90;57.20
39675;DHT22;27790;50.840;4.386;2022-07-01T12:29:16;22.50;56.30
39675;DHT22;27790;50.840;4.386;2022-07-01T12:31:42;22.60;55.40
39675;DHT22;27790;50.840;4.386;2022-07-01T12:34:08;22.60;56.20
39675;DHT22;27790;50.840;4.386;2022-07-01T12:36:33;22.70;56.10
39675;DHT22;27790;50.840;4.386;2022-07-01T12:39:00;22.60;58.30
39675;DHT22;27790;50.840;4.386;2022-07-01T12:41:26;22.70;56.30
39675;DHT22;27790;50.840;4.386;2022-07-01T12:43:52;22.80;57.10
39675;DHT22;27790;50.840;4.386;2022-07-01T12:48:54;23.30;56.50
39675;DHT22;27790;50.840;4.386;2022-07-01T12:51:19;23.30;54.90
39675;DHT22;27790;50.840;4.386;2022-07-01T12:53:45;23.30;53.90
39675;DHT22;27790;50.840;4.386;2022-07-01T12:56:20;23.30;53.80
39675;DHT22;27790;50.840;4.386;2022-07-01T12:58:47;23.20;55.00
39675;DHT22;27790;50.840;4.386;2022-07-01T13:01:12;23.10;54.50
39675;DHT22;27790;50.840;4.386;2022-07-01T13:03:41;22.90;53.80
39675;DHT22;27790;50.840;4.386;2022-07-01T13:06:09;22.90;54.80
39675;DHT22;27790;50.840;4.386;2022-07-01T13:08:35;22.90;53.80
39675;DHT22;27790;50.840;4.386;2022-07-01T13:11:00;23.00;55.90
39675;DHT22;27790;50.840;4.386;2022-07-01T13:13:25;23.00;55.70
39675;DHT22;27790;50.840;4.386;2022-07-01T13:15:51;23.20;57.70
39675;DHT22;27790;50.840;4.386;2022-07-01T13:18:17;23.40;56.40
39675;DHT22;27790;50.840;4.386;2022-07-01T13:20:42;23.50;53.10
39675;DHT22;27790;50.840;4.386;2022-07-01T13:23:08;23.70;53.90
39675;DHT22;27790;50.840;4.386;2022-07-01T13:25:34;23.90;52.40
39675;DHT22;27790;50.840;4.386;2022-07-01T13:27:59;24.10;53.10
39675;DHT22;27790;50.840;4.386;2022-07-01T13:30:25;24.30;51.70
39675;DHT22;27790;50.840;4.386;2022-07-01T13:32:51;24.50;52.70
39675;DHT22;27790;50.840;4.386;2022-07-01T13:35:19;24.60;52.50
39675;DHT22;27790;50.840;4.386;2022-07-01T13:37:44;24.60;50.70
39675;DHT22;27790;50.840;4.386;2022-07-01T13:40:10;24.60;53.60
39675;DHT22;27790;50.840;4.386;2022-07-01T13:42:36;24.40;52.00
39675;DHT22;27790;50.840;4.386;2022-07-01T13:45:02;24.30;53.30
39675;DHT22;27790;50.840;4.386;2022-07-01T13:47:27;24.20;51.30
39675;DHT22;27790;50.840;4.386;2022-07-01T13:49:53;24.20;52.80
39675;DHT22;27790;50.840;4.386;2022-07-01T13:52:18;24.10;53.30
39675;DHT22;27790;50.840;4.386;2022-07-01T13:54:44;24.20;53.30
39675;DHT22;27790;50.840;4.386;2022-07-01T13:57:17;24.00;52.70
39675;DHT22;27790;50.840;4.386;2022-07-01T13:59:42;23.80;54.00
39675;DHT22;27790;50.840;4.386;2022-07-01T14:02:08;23.70;53.40
39675;DHT22;27790;50.840;4.386;2022-07-01T14:04:34;23.60;54.30
39675;DHT22;27790;50.840;4.386;2022-07-01T14:06:59;23.50;54.80
39675;DHT22;27790;50.840;4.386;2022-07-01T14:09:25;23.50;53.90
39675;DHT22;27790;50.840;4.386;2022-07-01T14:11:50;23.30;55.40
39675;DHT22;27790;50.840;4.386;2022-07-01T14:14:16;23.10;55.70
39675;DHT22;27790;50.840;4.386;2022-07-01T14:16:41;23.00;56.40
39675;DHT22;27790;50.840;4.386;2022-07-01T14:19:07;22.90;56.30
39675;DHT22;27790;50.840;4.386;2022-07-01T14:21:32;22.80;56.20
39675;DHT22;27790;50.840;4.386;2022-07-01T14:23:58;22.70;56.90
39675;DHT22;27790;50.840;4.386;2022-07-01T14:26:23;22.70;55.40
39675;DHT22;27790;50.840;4.386;2022-07-01T14:28:49;22.50;55.40
39675;DHT22;27790;50.840;4.386;2022-07-01T14:31:15;22.40;57.20
39675;DHT22;27790;50.840;4.386;2022-07-01T14:33:40;22.40;56.10
39675;DHT22;27790;50.840;4.386;2022-07-01T14:36:06;22.40;56.00
39675;DHT22;27790;50.840;4.386;2022-07-01T14:38:31;22.60;57.20
39675;DHT22;27790;50.840;4.386;2022-07-01T14:40:57;22.80;56.30
39675;DHT22;27790;50.840;4.386;2022-07-01T14:43:22;23.00;55.90
39675;DHT22;27790;50.840;4.386;2022-07-01T14:45:48;23.30;56.00
39675;DHT22;27790;50.840;4.386;2022-07-01T14:48:13;23.50;55.90
39675;DHT22;27790;50.840;4.386;2022-07-01T14:50:42;23.60;55.50
39675;DHT22;27790;50.840;4.386;2022-07-01T14:53:08;23.70;54.70
39675;DHT22;27790;50.840;4.386;2022-07-01T14:55:34;23.60;53.90
39675;DHT22;27790;50.840;4.386;2022-07-01T14:57:59;23.50;55.90
39675;DHT22;27790;50.840;4.386;2022-07-01T15:00:25;23.50;57.50
39675;DHT22;27790;50.840;4.386;2022-07-01T15:02:51;23.70;57.10
39675;DHT22;27790;50.840;4.386;2022-07-01T15:05:16;23.90;57.50
39675;DHT22;27790;50.840;4.386;2022-07-01T15:07:42;24.00;53.20
39675;DHT22;27790;50.840;4.386;2022-07-01T15:10:08;24.00;53.70
39675;DHT22;27790;50.840;4.386;2022-07-01T15:12:33;24.00;54.50
39675;DHT22;27790;50.840;4.386;2022-07-01T15:14:59;24.10;56.20
39675;DHT22;27790;50.840;4.386;2022-07-01T15:17:24;24.20;56.00
39675;DHT22;27790;50.840;4.386;2022-07-01T15:19:50;24.10;55.50
39675;DHT22;27790;50.840;4.386;2022-07-01T15:22:16;24.00;56.30
39675;DHT22;27790;50.840;4.386;2022-07-01T15:24:41;23.70;57.40
39675;DHT22;27790;50.840;4.386;2022-07-01T15:27:07;23.70;56.90
39675;DHT22;27790;50.840;4.386;2022-07-01T15:29:33;23.50;57.90
39675;DHT22;27790;50.840;4.386;2022-07-01T15:31:59;23.40;58.00
39675;DHT22;27790;50.840;4.386;2022-07-01T15:34:24;23.30;58.10
39675;DHT22;27790;50.840;4.386;2022-07-01T15:36:50;23.00;58.90
39675;DHT22;27790;50.840;4.386;2022-07-01T15:39:15;23.00;58.50
39675;DHT22;27790;50.840;4.386;2022-07-01T15:41:41;23.00;59.60
39675;DHT22;27790;50.840;4.386;2022-07-01T15:44:07;23.00;60.10
39675;DHT22;27790;50.840;4.386;2022-07-01T15:46:33;23.10;58.70
39675;DHT22;27790;50.840;4.386;2022-07-01T15:48:59;23.10;57.90
39675;DHT22;27790;50.840;4.386;2022-07-01T15:51:25;23.10;59.40
39675;DHT22;27790;50.840;4.386;2022-07-01T15:53:51;23.20;59.90
39675;DHT22;27790;50.840;4.386;2022-07-01T15:56:16;23.20;59.70
39675;DHT22;27790;50.840;4.386;2022-07-01T15:58:42;23.30;59.20
39675;DHT22;27790;50.840;4.386;2022-07-01T16:01:09;23.40;58.80